KMAF/MAF METAR and TAF weather

Enter ICAO airport designator
Station Type Date Time Source
KMAF METAR 2020/12/06 01:53 UTC NOAA

KMAF 060153Z 23009KT 10SM FEW035 BKN046 OVC080 05/01 A3025 RMK AO2 RAB30E47 SLP242 P0000 T00500011


Station Type Date Time Source
KMAF Decoded METAR 2020/12/06 01:53 UTC NOAA

MIDLAND INTERNATIONAL AIRPORT , TX, United States (KMAF) 31-56N 102-12W 872M
Dec 05, 2020 - 08:53 PM EST / 2020.12.06 0153 UTC
Wind: from the SW (230 degrees) at 10 MPH (9 KT):0
Visibility: 10 mile(s):0
Sky conditions: overcast
Precipitation last hour: A trace
Temperature: 41.0 F (5.0 C)
Dew Point: 34.0 F (1.1 C)
Relative Humidity: 75%
Pressure (altimeter): 30.25 in. Hg (1024 hPa)
ob: KMAF 060153Z 23009KT 10SM FEW035 BKN046 OVC080 05/01 A3025 RMK AO2 RAB30E47 SLP242 P0000 T00500011
cycle: 2

Station Type Date Time Source
KMAF TAF 2020/12/05 20:06 UTC NOAA

TAF
AMD KMAF 052002Z 0520/0618 24005KT P6SM OVC040
FM060000 28005KT P6SM BKN170
FM061400 32008KT P6SM SKC

Example: see airport list